KRBG/RBG METAR and TAF weather

Enter ICAO airport designator
Station Type Date Time Source
KRBG METAR 2018/12/11 20:53 UTC NOAA

KRBG 112053Z AUTO 15005KT 10SM BKN026 OVC035 10/07 A3012 RMK AO2 RAB1956E39 PRESFR SLP200 P0000 60000 T01000067 58022


Station Type Date Time Source
KRBG Decoded METAR 2018/12/11 20:53 UTC NOAA

ROSEBURG REGIONAL AIRPORT, OR, United States (KRBG) 43-14N 123-21W 154M
Dec 11, 2018 - 03:53 PM EST / 2018.12.11 2053 UTC
Wind: from the SSE (150 degrees) at 6 MPH (5 KT):0
Visibility: 10 mile(s):0
Sky conditions: overcast
Precipitation last hour: A trace
Temperature: 50.0 F (10.0 C)
Dew Point: 44.1 F (6.7 C)
Relative Humidity: 79%
Pressure (altimeter): 30.12 in. Hg (1019 hPa)
Pressure tendency: falling rapidly - 0.06 inches (2.2 hPa) lower than three hours ago
ob: KRBG 112053Z AUTO 15005KT 10SM BKN026 OVC035 10/07 A3012 RMK AO2 RAB1956E39 PRESFR SLP200 P0000 60000 T01000067 58022
cycle: 21

Station Type Date Time Source
KRBG TAF 2018/12/11 18:51 UTC NOAA

TAF KRBG 111748Z 1118/1218 34003KT P6SM OVC035 WS020/23030KT
FM120300 18008KT 3SM RA BR BKN007 BKN012 OVC035 WS020/23035KT
FM120800 VRB03KT 3SM BR VCSH SCT007 BKN025
FM121400 00000KT 1SM BR OVC005


Example: see airport list